EDLP/PAD METAR and TAF weather

Enter ICAO airport designator
Station Type Date Time Source
EDLP METAR 2023/02/04 01:50 UTC NOAA

EDLP 040150Z 29008KT 250V320 9999 FEW016 OVC037 05/02 Q1030


Station Type Date Time Source
EDLP Decoded METAR 2023/02/04 01:50 UTC NOAA

Paderborn / Lippstadt, Germany (EDLP) 51-37N 008-37E
Feb 03, 2023 - 08:50 PM EST / 2023.02.04 0150 UTC
Wind: from the WNW (290 degrees) at 9 MPH (8 KT) (direction variable):0
Visibility: greater than 7 mile(s):0
Sky conditions: overcast
Temperature: 41 F (5 C)
Dew Point: 35 F (2 C)
Relative Humidity: 80%
Pressure (altimeter): 30.42 in. Hg (1030 hPa)
ob: EDLP 040150Z 29008KT 250V320 9999 FEW016 OVC037 05/02 Q1030
cycle: 2

Station Type Date Time Source
EDLP TAF 2023/02/03 18:27 UTC NOAA

TAF EDLP 031700Z 0318/0418 28012KT 9999 BKN020
BECMG 0323/0402 31005KT PROB30
TEMPO 0400/0408 BKN004
BECMG 0403/0406 VRB03KT

Example: see airport list